Time;durP1;ratioP1;P1;durP2;ratioP2;P2;SDS_P1;SDS_P2;PMS_P1;PMS_P2;Temp;Humidity;BMP_temperature;BMP_pressure;BME280_temperature;BME280_humidity;BME280_pressure;Samples;Min_cycle;Max_cycle;Signal;HPM_P1;HPM_P2
2021/04/23 00:01:52;;;;;;;16.00;5.65;;;;;;;2.40;100.00;102819.28;3581809;40;20066;-63
2021/04/23 00:04:18;;;;;;;11.35;5.30;;;;;;;2.36;100.00;102829.13;3581999;40;20395;-63
2021/04/23 00:06:49;;;;;;;16.17;5.63;;;;;;;2.27;100.00;102824.03;3581457;40;20084;-63
2021/04/23 00:09:17;;;;;;;13.95;6.22;;;;;;;2.16;100.00;102828.69;3580763;40;20070;-65
2021/04/23 00:11:46;;;;;;;18.60;6.50;;;;;;;2.08;100.00;102832.38;3581003;40;20154;-64
2021/04/23 00:17:23;;;;;;;19.10;6.60;;;;;;;2.05;100.00;102832.44;3614867;23;20053;-64
2021/04/23 00:19:49;;;;;;;19.13;6.70;;;;;;;1.99;100.00;102837.91;3581566;40;20045;-65
2021/04/23 00:22:16;;;;;;;16.80;5.93;;;;;;;1.93;100.00;102840.69;3581721;40;20044;-63
2021/04/23 00:24:43;;;;;;;17.95;5.95;;;;;;;1.92;100.00;102844.22;3581371;40;20095;-64
2021/04/23 00:27:09;;;;;;;15.07;6.63;;;;;;;1.91;100.00;102838.06;3580721;40;20327;-63
2021/04/23 00:29:36;;;;;;;17.55;5.93;;;;;;;1.91;100.00;102832.75;3579151;40;20506;-63
2021/04/23 00:35:09;;;;;;;10.63;5.55;;;;;;;1.82;100.00;102838.22;3557819;40;20064;-64
2021/04/23 00:37:35;;;;;;;11.88;5.72;;;;;;;1.80;100.00;102829.44;3561321;40;20058;-63
2021/04/23 00:40:02;;;;;;;12.20;5.85;;;;;;;1.86;100.00;102836.41;3560984;40;20067;-63
2021/04/23 00:42:28;;;;;;;13.50;5.68;;;;;;;1.77;100.00;102834.81;3561277;40;20401;-63
2021/04/23 00:44:54;;;;;;;16.35;6.15;;;;;;;1.61;100.00;102828.91;3561740;40;20036;-63
2021/04/23 00:47:20;;;;;;;11.05;5.30;;;;;;;1.57;100.00;102828.06;3561642;40;20045;-62
2021/04/23 00:49:46;;;;;;;12.68;6.15;;;;;;;1.58;100.00;102829.84;3560583;40;20136;-64
2021/04/23 00:52:12;;;;;;;17.70;5.43;;;;;;;1.55;100.00;102823.72;3560722;40;20069;-62
2021/04/23 00:54:39;;;;;;;15.02;5.80;;;;;;;1.53;100.00;102825.53;3561321;40;20053;-62
2021/04/23 00:57:05;;;;;;;13.63;5.47;;;;;;;1.35;100.00;102822.31;3560738;40;20081;-63
2021/04/23 00:59:31;;;;;;;14.77;6.10;;;;;;;1.33;100.00;102824.13;3561527;40;20718;-64
2021/04/23 01:02:07;;;;;;;10.95;5.65;;;;;;;1.32;100.00;102826.81;3561304;40;20037;-63
2021/04/23 01:04:33;;;;;;;10.93;4.70;;;;;;;1.28;100.00;102820.69;3561369;40;20131;-63
2021/04/23 01:07:00;;;;;;;13.45;5.72;;;;;;;1.22;100.00;102819.03;3560970;40;20507;-62
2021/04/23 01:09:29;;;;;;;12.25;5.15;;;;;;;1.32;100.00;102832.09;3560783;40;20044;-63
2021/04/23 01:11:57;;;;;;;14.23;6.15;;;;;;;1.32;100.00;102832.09;3560332;40;20103;-64
2021/04/23 01:14:24;;;;;;;19.37;6.23;;;;;;;1.42;100.00;102832.81;3560914;40;20045;-62
2021/04/23 01:19:43;;;;;;;14.73;6.07;;;;;;;1.24;100.00;102829.59;3559566;40;20065;-62
2021/04/23 01:22:12;;;;;;;17.30;6.65;;;;;;;1.23;100.00;102823.41;3559993;40;20092;-62
2021/04/23 01:24:38;;;;;;;15.95;5.68;;;;;;;1.29;100.00;102835.69;3561486;40;20102;-62
2021/04/23 01:27:05;;;;;;;16.08;6.25;;;;;;;1.29;100.00;102837.47;3560557;40;20069;-63
2021/04/23 01:29:31;;;;;;;15.35;6.38;;;;;;;1.27;100.00;102831.34;3559980;40;20104;-63
2021/04/23 01:31:58;;;;;;;14.15;5.63;;;;;;;1.31;100.00;102830.34;3556361;40;20140;-64
2021/04/23 01:34:29;;;;;;;13.18;5.82;;;;;;;1.28;100.00;102839.25;3559914;40;20437;-62
2021/04/23 01:36:55;;;;;;;17.08;6.00;;;;;;;1.20;100.00;102838.50;3561289;40;20301;-62
2021/04/23 01:39:24;;;;;;;13.25;6.13;;;;;;;1.22;100.00;102831.38;3559929;40;20367;-64
2021/04/23 01:41:51;;;;;;;12.82;5.88;;;;;;;1.36;100.00;102842.63;3561369;40;20045;-64
2021/04/23 01:44:18;;;;;;;13.25;5.38;;;;;;;1.50;100.00;102844.16;3560369;40;20151;-64
2021/04/23 01:46:44;;;;;;;11.68;5.35;;;;;;;1.63;100.00;102845.66;3561543;40;20053;-63
2021/04/23 01:49:13;;;;;;;13.52;6.10;;;;;;;1.71;100.00;102850.84;3559151;40;20053;-62
2021/04/23 01:51:41;;;;;;;14.45;6.47;;;;;;;1.58;100.00;102844.91;3561140;40;20142;-62
2021/04/23 01:54:09;;;;;;;13.20;6.10;;;;;;;1.50;100.00;102846.81;3560848;40;20046;-64
2021/04/23 01:56:36;;;;;;;12.73;5.80;;;;;;;1.50;100.00;102845.06;3560154;40;20171;-63
2021/04/23 01:59:03;;;;;;;17.52;6.68;;;;;;;1.52;100.00;102845.88;3559961;40;20124;-62
2021/04/23 02:01:29;;;;;;;19.38;6.57;;;;;;;1.46;100.00;102847.75;3560931;40;20083;-64
2021/04/23 02:03:55;;;;;;;12.10;5.43;;;;;;;1.59;100.00;102851.97;3559686;40;20048;-63
2021/04/23 02:06:21;;;;;;;15.38;6.28;;;;;;;1.65;100.00;102856.25;3559852;40;20077;-63
2021/04/23 02:08:47;;;;;;;12.65;5.60;;;;;;;1.65;100.00;102851.84;3559572;40;20053;-61
2021/04/23 02:11:17;;;;;;;12.75;5.53;;;;;;;1.53;100.00;102862.66;3559859;40;20074;-63
2021/04/23 02:13:47;;;;;;;19.38;6.30;;;;;;;1.37;100.00;102860.31;3560568;40;20077;-64
2021/04/23 02:16:18;;;;;;;14.45;6.38;;;;;;;1.44;100.00;102852.22;3560997;40;20047;-63
2021/04/23 02:18:46;;;;;;;10.85;5.60;;;;;;;1.52;100.00;102863.59;3561801;40;20049;-62
2021/04/23 02:21:14;;;;;;;13.95;6.07;;;;;;;1.33;100.00;102850.66;3561274;40;20049;-63
2021/04/23 02:23:42;;;;;;;15.32;6.30;;;;;;;1.35;100.00;102856.78;3562024;40;20065;-61
2021/04/23 02:26:09;;;;;;;14.65;5.95;;;;;;;1.32;100.00;102859.50;3560768;40;20414;-64
2021/04/23 02:28:35;;;;;;;10.93;5.47;;;;;;;1.33;100.00;102860.41;3560952;40;20420;-62
2021/04/23 02:31:06;;;;;;;13.60;5.85;;;;;;;1.29;100.00;102864.88;3562637;40;20053;-63
2021/04/23 02:33:32;;;;;;;14.85;6.10;;;;;;;1.37;100.00;102865.63;3562502;40;20050;-62
2021/04/23 02:36:00;;;;;;;11.15;5.60;;;;;;;1.48;100.00;102867.19;3562442;40;20097;-63
2021/04/23 02:38:28;;;;;;;17.95;6.10;;;;;;;1.49;100.00;102867.19;3561137;40;20065;-63
2021/04/23 02:40:55;;;;;;;11.35;5.35;;;;;;;1.52;100.00;102864.47;3562103;40;20053;-62
2021/04/23 02:43:24;;;;;;;13.70;5.65;;;;;;;1.59;100.00;102867.91;3562511;40;20208;-62
2021/04/23 02:45:52;;;;;;;16.33;6.60;;;;;;;1.62;100.00;102866.94;3562320;40;20056;-63
2021/04/23 02:48:22;;;;;;;14.65;6.15;;;;;;;1.65;100.00;102870.44;3561654;40;20052;-62
2021/04/23 02:50:51;;;;;;;20.75;6.10;;;;;;;1.74;100.00;102864.94;3562423;40;20066;-63
2021/04/23 02:53:17;;;;;;;15.02;6.07;;;;;;;1.84;100.00;102870.06;3562010;40;20714;-64
2021/04/23 02:55:43;;;;;;;15.88;5.97;;;;;;;1.88;100.00;102874.41;3562156;40;20083;-64
2021/04/23 02:58:13;;;;;;;13.45;6.53;;;;;;;2.06;100.00;102871.41;3561327;40;20061;-63
2021/04/23 03:00:43;;;;;;;11.55;6.15;;;;;;;2.20;100.00;102870.22;3560835;40;20054;-63
2021/04/23 03:03:12;;;;;;;15.82;6.70;;;;;;;2.15;100.00;102864.13;3562176;40;20060;-65
2021/04/23 03:05:41;;;;;;;22.17;7.43;;;;;;;2.14;100.00;102870.38;3561356;40;20050;-62
2021/04/23 03:08:09;;;;;;;15.10;5.63;;;;;;;2.08;100.00;102869.56;3561151;40;20386;-65
2021/04/23 03:10:37;;;;;;;13.82;5.47;;;;;;;2.07;100.00;102865.16;3561200;40;20582;-62
2021/04/23 03:13:05;;;;;;;11.70;6.22;;;;;;;2.04;100.00;102877.63;3561243;40;20045;-64
2021/04/23 03:15:32;;;;;;;20.40;6.70;;;;;;;2.12;100.00;102877.47;3562330;40;20138;-64
2021/04/23 03:17:58;;;;;;;17.63;6.30;;;;;;;2.17;100.00;102872.97;3562629;40;20319;-63
2021/04/23 03:20:26;;;;;;;21.95;8.35;;;;;;;2.08;100.00;102871.38;3560893;40;20063;-63
2021/04/23 03:22:53;;;;;;;17.92;6.45;;;;;;;2.26;100.00;102870.97;3562151;40;20421;-64
2021/04/23 03:25:19;;;;;;;19.67;6.63;;;;;;;2.23;100.00;102875.47;3561190;40;20054;-64
2021/04/23 03:27:46;;;;;;;15.18;6.40;;;;;;;2.32;100.00;102875.28;3561294;40;20424;-63
2021/04/23 03:30:15;;;;;;;15.35;6.28;;;;;;;2.26;100.00;102881.59;3559977;40;20042;-64
2021/04/23 03:32:42;;;;;;;15.32;6.35;;;;;;;2.36;100.00;102882.28;3562183;40;20531;-63
2021/04/23 03:35:10;;;;;;;15.98;5.75;;;;;;;2.19;100.00;102879.09;3558590;40;20061;-64
2021/04/23 03:37:36;;;;;;;14.98;6.43;;;;;;;2.12;100.00;102878.38;3562374;40;20054;-64
2021/04/23 03:40:04;;;;;;;17.83;7.20;;;;;;;2.13;100.00;102879.22;3561410;40;20057;-63
2021/04/23 03:42:30;;;;;;;16.38;7.07;;;;;;;2.17;100.00;102872.97;3560554;40;20056;-64
2021/04/23 03:44:56;;;;;;;19.33;6.88;;;;;;;1.93;100.00;102873.41;3561715;40;20376;-64
2021/04/23 03:47:22;;;;;;;15.88;6.53;;;;;;;1.75;100.00;102873.75;3560455;40;20101;-63
2021/04/23 03:49:49;;;;;;;15.98;6.68;;;;;;;1.81;100.00;102875.44;3561457;40;20060;-62
2021/04/23 03:52:16;;;;;;;13.65;6.45;;;;;;;1.81;100.00;102883.41;3560702;40;20156;-63
2021/04/23 03:54:42;;;;;;;17.15;7.13;;;;;;;1.66;100.00;102884.56;3561122;40;20049;-63
2021/04/23 03:57:10;;;;;;;15.48;6.60;;;;;;;1.71;100.00;102880.06;3561096;40;20108;-63
2021/04/23 03:59:36;;;;;;;13.30;7.28;;;;;;;1.49;100.00;102882.22;3561417;40;20064;-65
2021/04/23 04:02:03;;;;;;;14.73;6.50;;;;;;;1.40;100.00;102877.97;3560642;40;20076;-63
2021/04/23 04:04:29;;;;;;;17.67;6.55;;;;;;;1.38;100.00;102885.94;3561570;40;20100;-64
2021/04/23 04:06:55;;;;;;;14.93;6.25;;;;;;;1.55;100.00;102882.97;3561019;40;20072;-62
2021/04/23 04:09:21;;;;;;;13.55;6.05;;;;;;;1.61;100.00;102889.97;3561131;40;20038;-62
2021/04/23 04:11:47;;;;;;;15.38;6.10;;;;;;;1.55;100.00;102892.72;3561524;40;20054;-63
2021/04/23 04:14:14;;;;;;;10.63;5.72;;;;;;;1.60;100.00;102895.28;3560655;40;20139;-63
2021/04/23 04:16:40;;;;;;;16.45;7.40;;;;;;;1.61;100.00;102894.41;3562554;40;20053;-63
2021/04/23 04:19:06;;;;;;;18.88;6.47;;;;;;;1.58;100.00;102888.22;3560752;40;20116;-63
2021/04/23 04:21:33;;;;;;;18.58;6.97;;;;;;;1.63;100.00;102896.09;3560680;40;20053;-64
2021/04/23 04:23:59;;;;;;;21.55;7.00;;;;;;;1.55;100.00;102892.72;3561019;40;20135;-63
2021/04/23 04:26:25;;;;;;;19.33;7.22;;;;;;;1.47;100.00;102895.50;3560856;40;20049;-63
2021/04/23 04:28:51;;;;;;;17.63;6.78;;;;;;;1.59;100.00;102905.06;3561161;40;20302;-63
2021/04/23 04:31:17;;;;;;;20.42;7.85;;;;;;;1.56;100.00;102905.06;3561624;40;20151;-64
2021/04/23 04:33:44;;;;;;;17.27;7.80;;;;;;;1.57;100.00;102912.16;3562324;40;20162;-63
2021/04/23 04:36:11;;;;;;;17.05;7.30;;;;;;;1.70;100.00;102918.97;3619002;22;20057;-63
2021/04/23 04:38:37;;;;;;;15.85;7.03;;;;;;;1.84;100.00;102921.41;3580176;40;20383;-62
2021/04/23 04:41:03;;;;;;;20.40;7.90;;;;;;;1.82;100.00;102922.31;3579749;40;20049;-63
2021/04/23 04:43:30;;;;;;;12.75;6.70;;;;;;;1.93;100.00;102923.00;3581179;40;20081;-63
2021/04/23 04:45:56;;;;;;;18.85;6.85;;;;;;;1.88;100.00;102922.19;3580719;40;20054;-62
2021/04/23 04:48:22;;;;;;;16.10;7.03;;;;;;;1.97;100.00;102921.16;3580619;40;20297;-63
2021/04/23 04:50:51;;;;;;;16.27;6.70;;;;;;;1.93;100.00;102923.00;3580325;40;20036;-65
2021/04/23 04:53:18;;;;;;;16.92;7.10;;;;;;;2.03;100.00;102927.25;3581336;40;20412;-64
2021/04/23 04:55:49;;;;;;;16.65;6.50;;;;;;;2.03;100.00;102921.94;3580690;40;20053;-63
2021/04/23 04:58:17;;;;;;;18.85;7.43;;;;;;;2.18;100.00;102925.16;3581435;40;20059;-64
2021/04/23 05:00:44;;;;;;;12.30;5.87;;;;;;;2.37;100.00;102926.56;3580185;40;20041;-64
2021/04/23 05:03:11;;;;;;;16.70;7.18;;;;;;;2.23;100.00;102936.59;3581106;40;20289;-64
2021/04/23 05:05:39;;;;;;;16.42;7.03;;;;;;;2.17;100.00;102923.44;3579476;40;20074;-65
2021/04/23 05:10:31;;;;;;;19.35;7.38;;;;;;;2.04;100.00;102939.59;3582644;22;20057;-63
2021/04/23 05:12:58;;;;;;;16.55;6.95;;;;;;;1.96;100.00;102937.97;3571378;40;20352;-65
2021/04/23 05:15:24;;;;;;;16.50;7.60;;;;;;;2.03;100.00;102943.19;3570958;40;20125;-65
2021/04/23 05:17:50;;;;;;;16.50;7.03;;;;;;;2.04;100.00;102949.34;3571545;40;20048;-64
2021/04/23 05:20:19;;;;;;;14.93;6.90;;;;;;;2.02;100.00;102946.72;3570383;40;20424;-63
2021/04/23 05:22:46;;;;;;;16.23;6.80;;;;;;;2.21;100.00;102949.00;3571300;40;20330;-64
2021/04/23 05:25:15;;;;;;;18.95;7.00;;;;;;;2.20;100.00;102948.13;3571523;40;20298;-63
2021/04/23 05:27:41;;;;;;;15.50;7.60;;;;;;;2.30;100.00;102946.19;3572015;40;20089;-63
2021/04/23 05:30:09;;;;;;;17.98;7.15;;;;;;;2.39;100.00;102945.13;3568295;40;20421;-63
2021/04/23 05:32:36;;;;;;;21.95;7.53;;;;;;;2.55;100.00;102956.31;3571044;40;20053;-63
2021/04/23 05:35:02;;;;;;;14.77;6.93;;;;;;;2.69;100.00;102954.22;3571465;40;20098;-63
2021/04/23 05:37:28;;;;;;;17.42;6.82;;;;;;;2.81;100.00;102961.03;3570561;40;20273;-63
2021/04/23 05:39:55;;;;;;;13.48;7.03;;;;;;;2.97;100.00;102965.13;3570981;40;20053;-63
2021/04/23 05:42:22;;;;;;;21.52;7.57;;;;;;;3.15;100.00;102955.84;3571079;40;20154;-63
2021/04/23 05:44:48;;;;;;;15.50;6.47;;;;;;;3.36;100.00;102950.03;3570503;40;20053;-64
2021/04/23 05:47:14;;;;;;;15.77;6.78;;;;;;;3.54;100.00;102951.38;3570588;40;20045;-62
2021/04/23 05:49:40;;;;;;;14.45;6.30;;;;;;;3.83;100.00;102953.28;3569892;40;20053;-63
2021/04/23 05:52:08;;;;;;;14.93;6.95;;;;;;;3.97;100.00;102958.22;3571566;40;20067;-63
2021/04/23 05:54:35;;;;;;;17.02;6.57;;;;;;;4.13;100.00;102958.69;3572441;40;20646;-63
2021/04/23 05:57:03;;;;;;;19.35;6.57;;;;;;;4.31;100.00;102966.16;3573196;40;20049;-63
2021/04/23 05:59:30;;;;;;;12.27;3.97;;;;;;;4.54;100.00;102969.97;3572060;40;20081;-63
2021/04/23 06:01:56;;;;;;;15.95;4.85;;;;;;;4.83;100.00;102961.09;3572332;40;20061;-63
2021/04/23 06:04:22;;;;;;;20.02;4.15;;;;;;;5.01;100.00;102958.78;3570813;40;20083;-62
2021/04/23 06:06:48;;;;;;;12.02;2.97;;;;;;;5.25;100.00;102963.31;3572414;40;20423;-64
2021/04/23 06:09:14;;;;;;;10.00;2.90;;;;;;;5.40;100.00;102955.72;3571622;40;20434;-63
2021/04/23 06:11:40;;;;;;;11.65;3.63;;;;;;;5.49;100.00;102959.88;3572571;40;20049;-63
2021/04/23 06:14:07;;;;;;;11.25;3.00;;;;;;;5.59;100.00;102951.53;3571888;40;20049;-63
2021/04/23 06:16:33;;;;;;;7.63;2.97;;;;;;;5.85;100.00;102956.91;3571593;40;20413;-63
2021/04/23 06:19:03;;;;;;;9.10;2.75;;;;;;;5.85;100.00;102951.56;3571576;40;20098;-63
2021/04/23 06:21:29;;;;;;;12.48;3.42;;;;;;;6.03;100.00;102950.06;3572074;40;20468;-65
2021/04/23 06:23:55;;;;;;;13.98;3.15;;;;;;;6.05;100.00;102956.22;3572168;40;20060;-65
2021/04/23 06:26:21;;;;;;;11.13;3.60;;;;;;;6.02;100.00;102959.00;3571560;40;20122;-64
2021/04/23 06:28:47;;;;;;;9.23;3.55;;;;;;;5.89;100.00;102959.41;3571411;40;20261;-64
2021/04/23 06:31:15;;;;;;;9.07;3.40;;;;;;;5.82;100.00;102957.88;3572009;40;20058;-66
2021/04/23 06:33:45;;;;;;;18.90;3.92;;;;;;;5.92;100.00;102953.97;3571243;40;20115;-64
2021/04/23 06:36:12;;;;;;;10.27;3.20;;;;;;;6.18;100.00;102959.31;3571144;40;20053;-65
2021/04/23 06:38:38;;;;;;;11.80;2.92;;;;;;;6.49;100.00;102967.06;3571618;40;20037;-64
2021/04/23 06:41:04;;;;;;;12.38;2.70;;;;;;;6.68;100.00;102961.91;3571764;40;20052;-63
2021/04/23 06:43:30;;;;;;;13.82;2.92;;;;;;;6.71;100.00;102968.94;3572704;40;20150;-64
2021/04/23 06:45:57;;;;;;;12.60;3.20;;;;;;;6.66;100.00;102961.09;3572110;40;20048;-63
2021/04/23 06:48:24;;;;;;;10.95;3.47;;;;;;;6.80;100.00;102960.56;3571310;40;20049;-64
2021/04/23 06:50:50;;;;;;;10.25;3.00;;;;;;;6.79;100.00;102966.84;3570660;40;20069;-64
2021/04/23 06:53:18;;;;;;;9.13;3.17;;;;;;;6.91;100.00;102958.34;3571696;40;20061;-64
2021/04/23 06:55:45;;;;;;;8.20;2.38;;;;;;;6.99;100.00;102963.38;3572611;40;20059;-64
2021/04/23 06:58:12;;;;;;;14.50;3.10;;;;;;;7.04;100.00;102960.50;3571706;40;20041;-65
2021/04/23 07:00:39;;;;;;;9.02;2.75;;;;;;;7.06;100.00;102967.56;3571388;40;20416;-64
2021/04/23 07:03:07;;;;;;;13.10;3.00;;;;;;;7.31;100.00;102969.25;3571910;40;20055;-65
2021/04/23 07:05:34;;;;;;;9.63;2.90;;;;;;;7.09;100.00;102971.94;3571877;40;20044;-66
2021/04/23 07:08:00;;;;;;;10.52;2.67;;;;;;;6.90;100.00;102975.31;3572225;40;20400;-66
2021/04/23 07:10:29;;;;;;;6.47;2.70;;;;;;;6.98;100.00;102973.22;3572129;40;20045;-64
2021/04/23 07:12:57;;;;;;;7.07;2.72;;;;;;;7.13;100.00;102965.53;3572701;40;20397;-64
2021/04/23 07:15:24;;;;;;;13.60;2.78;;;;;;;6.97;100.00;102976.84;3571381;40;20057;-64
2021/04/23 07:17:52;;;;;;;9.73;2.60;;;;;;;7.27;100.00;102979.22;3572806;40;20064;-64
2021/04/23 07:20:19;;;;;;;9.63;2.42;;;;;;;7.51;100.00;102981.84;3570738;40;20092;-64
2021/04/23 07:22:46;;;;;;;11.88;2.97;;;;;;;7.60;100.00;102984.13;3571751;40;20057;-64
2021/04/23 07:25:14;;;;;;;9.18;2.60;;;;;;;7.69;100.00;102980.19;3571243;40;20428;-66
2021/04/23 07:27:40;;;;;;;9.20;2.30;;;;;;;7.82;100.00;102981.41;3572691;40;20077;-64
2021/04/23 07:30:09;;;;;;;9.35;2.67;;;;;;;7.77;100.00;102978.03;3570260;40;20057;-64
2021/04/23 07:32:35;;;;;;;11.13;2.70;;;;;;;8.01;100.00;102978.78;3572109;40;20383;-64
2021/04/23 07:35:01;;;;;;;9.32;2.50;;;;;;;8.15;100.00;102977.31;3572042;40;20166;-64
2021/04/23 07:37:27;;;;;;;11.32;2.70;;;;;;;8.16;100.00;102985.28;3571807;40;20049;-64
2021/04/23 07:39:54;;;;;;;10.68;2.47;;;;;;;8.16;100.00;102987.13;3570290;40;20095;-65
2021/04/23 07:42:20;;;;;;;8.63;2.33;;;;;;;8.00;100.00;102994.97;3572035;40;20041;-64
2021/04/23 07:44:46;;;;;;;9.57;2.78;;;;;;;8.00;100.00;102989.59;3570449;40;20468;-65
2021/04/23 07:47:12;;;;;;;7.93;2.38;;;;;;;8.30;100.00;102987.34;3570847;40;20928;-66
2021/04/23 07:49:38;;;;;;;12.02;2.97;;;;;;;8.60;100.00;102992.31;3569893;40;20391;-66
2021/04/23 07:52:05;;;;;;;9.30;2.38;;;;;;;9.18;100.00;102985.13;3570921;40;20053;-67
2021/04/23 07:54:31;;;;;;;5.63;1.95;;;;;;;9.16;100.00;102992.38;3571314;40;20420;-64
2021/04/23 07:56:58;;;;;;;16.52;2.42;;;;;;;9.05;100.00;102998.25;3571246;40;20057;-64
2021/04/23 07:59:24;;;;;;;6.75;1.92;;;;;;;9.11;100.00;102996.16;3569725;40;20319;-64
2021/04/23 08:01:54;;;;;;;10.68;2.28;;;;;;;9.19;100.00;103003.84;3570302;40;20328;-65
2021/04/23 08:04:21;;;;;;;12.50;2.30;;;;;;;9.29;100.00;102996.22;3570860;40;20332;-65
2021/04/23 08:06:47;;;;;;;7.82;1.98;;;;;;;9.63;100.00;102994.56;3570978;40;20064;-65
2021/04/23 08:09:13;;;;;;;7.90;2.30;;;;;;;10.03;100.00;102995.19;3569845;40;20049;-64
2021/04/23 08:11:39;;;;;;;10.85;2.10;;;;;;;10.20;100.00;102990.72;3571257;40;20379;-64
2021/04/23 08:14:06;;;;;;;11.00;2.22;;;;;;;9.89;100.00;102992.34;3569646;40;20108;-65
2021/04/23 08:16:32;;;;;;;8.07;2.42;;;;;;;10.37;100.00;102997.97;3572379;40;20077;-65
2021/04/23 08:18:58;;;;;;;13.00;2.53;;;;;;;9.83;100.00;102993.50;3568902;40;20384;-66
2021/04/23 08:21:25;;;;;;;7.70;2.40;;;;;;;9.57;100.00;102997.53;3569400;40;20056;-67
2021/04/23 08:23:51;;;;;;;8.55;2.40;;;;;;;9.78;100.00;102998.28;3570192;40;20182;-66
2021/04/23 08:26:18;;;;;;;7.95;2.55;;;;;;;9.59;100.00;103006.41;3569343;40;20045;-67
2021/04/23 08:28:44;;;;;;;9.38;2.38;;;;;;;9.28;100.00;103007.91;3569436;40;20044;-66
2021/04/23 08:31:12;;;;;;;8.45;2.25;;;;;;;9.39;100.00;103004.69;3569174;40;20410;-64
2021/04/23 08:33:38;;;;;;;8.32;2.75;;;;;;;9.77;100.00;103010.81;3569024;40;20486;-65
2021/04/23 08:36:05;;;;;;;8.52;1.98;;;;;;;9.54;100.00;103013.81;3568947;40;20081;-65
2021/04/23 08:38:31;;;;;;;9.50;2.40;;;;;;;9.88;100.00;103013.00;3568287;40;20146;-65
2021/04/23 08:40:58;;;;;;;6.20;2.50;;;;;;;9.39;100.00;103008.28;3569615;40;20051;-65
2021/04/23 08:43:24;;;;;;;8.20;2.28;;;;;;;9.73;100.00;103011.97;3634933;22;20057;-65
2021/04/23 08:45:50;;;;;;;12.55;3.08;;;;;;;9.57;99.74;103008.28;3569509;40;20036;-65
2021/04/23 08:48:17;;;;;;;10.88;2.40;;;;;;;9.44;100.00;103013.41;3569792;40;20150;-65
2021/04/23 08:50:46;;;;;;;8.98;2.42;;;;;;;9.53;99.37;103018.31;3568940;40;20059;-66
2021/04/23 08:55:39;;;;;;;6.70;2.30;;;;;;;9.28;100.00;103019.53;3601642;22;20138;-66
2021/04/23 08:58:05;;;;;;;13.27;2.92;;;;;;;9.52;100.00;103013.03;3569145;40;20055;-65
2021/04/23 09:00:32;;;;;;;7.53;2.58;;;;;;;10.21;99.60;103008.63;3569161;40;20076;-66
2021/04/23 09:02:58;;;;;;;9.23;3.03;;;;;;;10.32;94.21;103006.22;3569649;40;20033;-65
2021/04/23 09:05:25;;;;;;;9.25;2.55;;;;;;;10.30;93.54;103000.06;3568953;40;20060;-63
2021/04/23 09:08:01;;;;;;;5.30;2.15;;;;;;;10.53;89.57;102998.88;3568100;40;20311;-64
2021/04/23 09:10:28;;;;;;;7.78;2.65;;;;;;;10.79;84.50;103005.53;3570462;40;20285;-65
2021/04/23 09:13:05;;;;;;;7.40;2.60;;;;;;;11.02;83.13;103001.53;3569865;40;20045;-64
2021/04/23 09:15:31;;;;;;;10.05;2.47;;;;;;;11.21;78.55;102995.09;3569713;40;20101;-64
2021/04/23 09:18:09;;;;;;;7.90;2.72;;;;;;;11.12;77.74;102996.50;3640804;22;20092;-65
2021/04/23 09:20:37;;;;;;;8.60;2.30;;;;;;;11.60;78.71;102996.44;3569312;40;20036;-64
2021/04/23 09:23:13;;;;;;;7.72;2.55;;;;;;;11.81;78.39;102988.91;3569477;40;20057;-66
2021/04/23 09:25:46;;;;;;;6.25;2.70;;;;;;;11.71;75.70;102998.50;3569768;40;20131;-64
2021/04/23 09:28:12;;;;;;;12.77;3.00;;;;;;;10.95;78.06;103000.13;3569885;40;20077;-64
2021/04/23 09:30:39;;;;;;;10.60;2.83;;;;;;;11.01;81.82;102998.91;3570195;40;20025;-66
2021/04/23 09:33:21;;;;;;;6.85;2.58;;;;;;;10.64;87.25;103000.97;3569175;40;20142;-65
2021/04/23 09:35:49;;;;;;;9.90;2.75;;;;;;;10.56;88.65;102997.84;3569374;40;20037;-65
2021/04/23 09:38:17;;;;;;;7.43;2.60;;;;;;;10.80;85.75;103006.38;3569128;40;20044;-65
2021/04/23 09:40:43;;;;;;;8.50;2.47;;;;;;;11.01;86.12;103001.59;3569106;40;20049;-64
2021/04/23 09:43:09;;;;;;;11.43;3.00;;;;;;;10.87;85.48;103002.41;3570174;40;20109;-65
2021/04/23 09:45:48;;;;;;;11.32;2.65;;;;;;;11.08;83.83;103003.00;3570076;40;20060;-64
2021/04/23 09:48:18;;;;;;;8.60;2.60;;;;;;;10.65;85.50;103002.72;3570443;40;20067;-64
2021/04/23 09:50:44;;;;;;;8.57;2.97;;;;;;;11.41;81.50;103007.44;3570062;40;20378;-64
2021/04/23 09:53:11;;;;;;;7.90;2.55;;;;;;;11.40;80.59;103005.69;3568324;40;20137;-66
2021/04/23 09:55:38;;;;;;;8.00;2.35;;;;;;;11.82;81.13;102996.03;3569128;40;20041;-65
2021/04/23 09:58:06;;;;;;;6.63;2.38;;;;;;;12.09;76.12;103000.75;3569029;40;20091;-65
2021/04/23 10:00:35;;;;;;;9.65;3.10;;;;;;;12.31;68.58;102999.44;3569655;40;20053;-65
2021/04/23 10:03:02;;;;;;;9.02;2.97;;;;;;;11.49;73.59;103001.59;3568668;40;20045;-66
2021/04/23 10:05:32;;;;;;;6.47;2.45;;;;;;;11.50;75.89;103001.50;3568926;40;20051;-65
2021/04/23 10:07:59;;;;;;;11.23;2.40;;;;;;;11.53;77.91;103005.84;3568445;40;20056;-66
2021/04/23 10:10:27;;;;;;;9.07;2.60;;;;;;;11.41;80.25;102996.66;3568402;40;20106;-66
2021/04/23 10:12:54;;;;;;;9.85;2.88;;;;;;;11.71;77.67;103003.91;3568787;40;20052;-65
2021/04/23 10:15:23;;;;;;;8.88;2.72;;;;;;;11.77;77.20;103003.53;3568760;40;20403;-66
2021/04/23 10:17:50;;;;;;;9.07;2.38;;;;;;;12.16;76.93;102998.53;3569516;40;20347;-65
2021/04/23 10:20:20;;;;;;;7.93;2.38;;;;;;;12.44;71.73;102993.19;3568368;40;20140;-64
2021/04/23 10:22:46;;;;;;;9.65;2.63;;;;;;;12.74;72.66;102996.75;3567982;40;20081;-65
2021/04/23 10:25:14;;;;;;;10.57;3.00;;;;;;;11.96;75.44;102997.94;3569252;40;20100;-65
2021/04/23 10:27:42;;;;;;;12.30;3.15;;;;;;;11.50;77.70;103006.91;3568251;40;20092;-65
2021/04/23 10:30:11;;;;;;;8.48;3.25;;;;;;;11.34;78.75;103000.66;3568170;40;20055;-65
2021/04/23 10:32:38;;;;;;;8.73;2.85;;;;;;;11.80;75.65;102994.38;3568079;40;20071;-66
2021/04/23 10:35:05;;;;;;;7.93;2.40;;;;;;;12.15;73.48;102992.28;3569490;40;20395;-66
2021/04/23 10:37:32;;;;;;;7.28;2.60;;;;;;;12.19;71.35;102992.94;3568997;40;20045;-66
2021/04/23 10:39:59;;;;;;;10.40;2.70;;;;;;;12.09;70.45;102982.72;3570047;40;20079;-64
2021/04/23 10:42:46;;;;;;;7.13;2.83;;;;;;;12.61;69.79;102984.00;3568716;40;20088;-64
2021/04/23 10:45:33;;;;;;;7.32;2.70;;;;;;;12.94;72.39;102992.75;3569133;40;20053;-65
2021/04/23 10:47:59;;;;;;;8.57;3.28;;;;;;;13.18;66.32;102993.00;3570744;40;20067;-63
2021/04/23 10:50:27;;;;;;;6.60;2.10;;;;;;;12.82;68.53;102986.31;3568558;40;20049;-61
2021/04/23 10:52:58;;;;;;;9.57;2.80;;;;;;;12.18;71.78;102994.78;3570326;40;20067;-61
2021/04/23 10:55:37;;;;;;;9.15;3.33;;;;;;;12.65;70.61;102994.59;3571020;40;20440;-62
2021/04/23 10:58:04;;;;;;;7.35;2.63;;;;;;;13.23;68.51;102990.00;3570533;40;20175;-62
2021/04/23 11:00:31;;;;;;;11.98;3.17;;;;;;;13.36;65.39;102987.38;3571275;40;20052;-61
2021/04/23 11:03:23;;;;;;;7.93;2.75;;;;;;;13.35;66.33;102988.34;3570052;40;20063;-62
2021/04/23 11:05:49;;;;;;;8.30;2.67;;;;;;;13.34;63.44;102987.47;3570514;40;20404;-64
2021/04/23 11:08:15;;;;;;;5.20;2.35;;;;;;;13.62;64.00;102981.09;3572300;40;20049;-62
2021/04/23 11:13:34;;;;;;;7.10;2.63;;;;;;;13.22;66.34;102986.44;3613059;23;20065;-62
2021/04/23 11:16:41;;;;;;;7.18;2.90;;;;;;;13.17;63.87;102988.56;3570964;40;20065;-61
2021/04/23 11:19:36;;;;;;;8.52;2.70;;;;;;;13.24;63.32;102987.19;3568606;40;20079;-64
2021/04/23 11:22:08;;;;;;;10.30;3.20;;;;;;;13.10;66.38;102987.22;3572421;40;20067;-62
2021/04/23 11:24:35;;;;;;;14.57;3.00;;;;;;;13.11;64.55;102978.16;3572340;40;20080;-62
2021/04/23 11:27:19;;;;;;;5.43;2.40;;;;;;;13.38;63.54;102983.56;3573479;40;20093;-63
2021/04/23 11:30:06;;;;;;;10.27;2.50;;;;;;;13.87;59.30;102978.53;3571467;40;20042;-62
2021/04/23 11:32:32;;;;;;;9.07;2.67;;;;;;;13.47;60.36;102977.56;3571414;40;20116;-61
2021/04/23 11:35:00;;;;;;;9.23;2.90;;;;;;;13.94;61.54;102975.31;3571961;40;20061;-61
2021/04/23 11:37:28;;;;;;;9.38;2.50;;;;;;;13.85;64.08;102975.91;3569721;40;20056;-61
2021/04/23 11:39:57;;;;;;;6.80;2.65;;;;;;;13.93;63.99;102962.75;3570889;40;20091;-63